Time;durP1;ratioP1;P1;durP2;ratioP2;P2;SDS_P1;SDS_P2;PMS_P1;PMS_P2;Temp;Humidity;BMP_temperature;BMP_pressure;BME280_temperature;BME280_humidity;BME280_pressure;Samples;Min_cycle;Max_cycle;Signal;HPM_P1;HPM_P2
2023/05/26 00:01:07;;;;;;;18.13;6.07;;;;;;;8.77;100.00;102979.47;10295220;28;20378;-73
2023/05/26 00:06:10;;;;;;;29.15;8.45;;;;;;;8.65;100.00;102984.13;10295650;28;20034;-73
2023/05/26 00:11:10;;;;;;;20.90;6.78;;;;;;;8.60;100.00;102981.78;10295550;28;20478;-73
2023/05/26 00:16:11;;;;;;;29.60;7.90;;;;;;;8.55;100.00;102985.88;10294882;28;20062;-73
2023/05/26 00:21:11;;;;;;;25.75;7.95;;;;;;;8.49;100.00;102990.00;10294632;28;20089;-73
2023/05/26 00:26:11;;;;;;;33.67;8.82;;;;;;;8.37;100.00;102997.25;10294673;28;20030;-73
2023/05/26 00:31:12;;;;;;;14.25;7.55;;;;;;;8.30;100.00;102990.69;10295121;28;20407;-73
2023/05/26 00:36:12;;;;;;;17.75;5.78;;;;;;;8.17;100.00;102990.03;10277642;28;20089;-73
2023/05/26 00:41:14;;;;;;;24.48;6.60;;;;;;;8.10;100.00;102999.59;10276533;28;20023;-73
2023/05/26 00:46:14;;;;;;;28.17;9.13;;;;;;;8.07;100.00;102999.84;10277835;28;20034;-73
2023/05/26 00:51:15;;;;;;;34.88;6.80;;;;;;;8.00;100.00;103001.38;10295838;28;20383;-73
2023/05/26 00:56:18;;;;;;;14.38;5.80;;;;;;;8.02;100.00;103002.09;10276503;28;20031;-73
2023/05/26 01:01:18;;;;;;;20.23;5.47;;;;;;;7.98;100.00;103000.66;10277228;28;20034;-73
2023/05/26 01:06:20;;;;;;;25.88;6.43;;;;;;;7.95;100.00;103001.78;10260687;28;20031;-73
2023/05/26 01:11:30;;;;;;;27.58;7.53;;;;;;;7.91;100.00;103001.16;10294579;28;20058;-73
2023/05/26 01:16:53;;;;;;;28.25;7.82;;;;;;;7.90;100.00;103006.69;10292639;28;20031;-73
2023/05/26 01:21:54;;;;;;;32.15;8.63;;;;;;;7.88;100.00;103006.81;10293869;28;20066;-73
2023/05/26 01:27:16;;;;;;;19.58;6.53;;;;;;;7.80;100.00;103014.69;10278121;28;20045;-73
2023/05/26 01:32:17;;;;;;;16.23;5.88;;;;;;;7.67;100.00;103009.44;10293794;28;20366;-73
2023/05/26 01:37:17;;;;;;;19.52;8.32;;;;;;;7.63;100.00;103005.31;10283585;28;20046;-73
2023/05/26 01:42:23;;;;;;;22.45;5.80;;;;;;;7.53;100.00;103004.34;10273207;28;20079;-73
2023/05/26 01:47:24;;;;;;;14.67;4.97;;;;;;;7.53;100.00;103015.13;10271710;28;20070;-73
2023/05/26 01:52:24;;;;;;;13.40;7.00;;;;;;;7.46;100.00;103022.00;10287779;28;20272;-73
2023/05/26 01:57:25;;;;;;;29.80;7.22;;;;;;;7.42;100.00;103017.84;10266944;28;20039;-73
2023/05/26 02:02:25;;;;;;;33.47;7.55;;;;;;;7.43;100.00;103027.63;10266082;28;20022;-73
2023/05/26 02:07:26;;;;;;;23.75;6.10;;;;;;;7.47;100.00;103031.81;10281697;28;20035;-73
2023/05/26 02:12:26;;;;;;;24.75;6.80;;;;;;;7.43;100.00;103028.50;10299883;28;20054;-73
2023/05/26 02:17:27;;;;;;;25.88;7.43;;;;;;;7.46;100.00;103030.94;10281731;28;20346;-73
2023/05/26 02:22:27;;;;;;;39.95;9.43;;;;;;;7.50;100.00;103039.66;10280919;28;20031;-73
2023/05/26 02:27:27;;;;;;;17.95;7.28;;;;;;;7.57;100.00;103035.47;10298139;28;20038;-73
2023/05/26 02:32:29;;;;;;;25.00;7.90;;;;;;;7.62;100.00;103040.47;10282586;28;20037;-73
2023/05/26 02:37:30;;;;;;;26.55;7.32;;;;;;;7.57;100.00;103040.84;10284284;28;20101;-73
2023/05/26 02:42:30;;;;;;;41.17;9.02;;;;;;;7.58;100.00;103037.16;10269892;28;20030;-73
2023/05/26 02:47:30;;;;;;;20.42;8.40;;;;;;;7.49;100.00;103037.91;10280876;28;20181;-73
2023/05/26 02:52:31;;;;;;;46.72;9.13;;;;;;;7.43;100.00;103033.00;10279055;28;20050;-73
2023/05/26 02:57:32;;;;;;;24.63;7.00;;;;;;;7.39;100.00;103043.19;10279625;28;20038;-73
2023/05/26 03:02:33;;;;;;;22.33;7.35;;;;;;;7.44;100.00;103045.53;10296697;28;20414;-73
2023/05/26 03:07:33;;;;;;;22.27;7.82;;;;;;;7.46;100.00;103030.06;10295881;28;20038;-73
2023/05/26 03:12:34;;;;;;;26.33;7.65;;;;;;;7.42;100.00;103039.41;10264922;28;20086;-73
2023/05/26 03:17:34;;;;;;;21.25;7.90;;;;;;;7.34;100.00;103047.22;10278695;28;20046;-73
2023/05/26 03:22:35;;;;;;;27.42;7.22;;;;;;;7.31;100.00;103045.66;10296481;28;20023;-73
2023/05/26 03:27:37;;;;;;;34.17;8.38;;;;;;;7.34;100.00;103053.50;10295668;28;20374;-73
2023/05/26 03:32:38;;;;;;;21.48;6.63;;;;;;;7.43;100.00;103051.88;10296436;28;20066;-73
2023/05/26 03:37:38;;;;;;;17.60;6.28;;;;;;;7.50;100.00;103041.47;10278439;28;20074;-73
2023/05/26 03:42:39;;;;;;;23.95;9.20;;;;;;;7.59;100.00;103052.34;10295191;28;20330;-73
2023/05/26 03:47:39;;;;;;;27.63;8.90;;;;;;;7.64;100.00;103052.84;10261782;28;20030;-73
2023/05/26 03:52:40;;;;;;;18.85;6.30;;;;;;;7.67;100.00;103054.44;10295301;28;20037;-73
2023/05/26 03:57:40;;;;;;;23.38;6.72;;;;;;;7.72;100.00;103067.53;10294536;28;20031;-73
2023/05/26 04:02:41;;;;;;;19.33;6.22;;;;;;;7.80;100.00;103065.94;10294793;28;20113;-73
2023/05/26 04:07:42;;;;;;;35.13;7.95;;;;;;;7.88;100.00;103065.28;10295108;28;20375;-73
2023/05/26 04:12:42;;;;;;;18.00;6.38;;;;;;;7.91;100.00;103059.63;10294477;28;20189;-73
2023/05/26 04:17:43;;;;;;;23.08;8.02;;;;;;;8.00;100.00;103055.31;10277567;28;20454;-72
2023/05/26 04:22:43;;;;;;;34.15;8.00;;;;;;;8.03;100.00;103061.31;10308770;28;20350;-73
2023/05/26 04:27:44;;;;;;;19.77;7.05;;;;;;;8.12;100.00;103063.25;10276645;28;20035;-74
2023/05/26 04:32:44;;;;;;;29.98;9.77;;;;;;;8.26;100.00;103056.69;10293809;28;20393;-74
2023/05/26 04:37:45;;;;;;;22.33;7.10;;;;;;;8.35;100.00;103063.16;10277095;28;20038;-74
2023/05/26 04:42:48;;;;;;;25.90;9.25;;;;;;;8.42;100.00;103068.94;10294154;28;20034;-73
2023/05/26 04:47:49;;;;;;;19.77;6.70;;;;;;;8.59;100.00;103076.47;10295524;28;20050;-75
2023/05/26 04:52:50;;;;;;;23.35;9.20;;;;;;;8.92;100.00;103083.50;10276490;28;20484;-73
2023/05/26 04:57:50;;;;;;;28.38;7.43;;;;;;;9.23;100.00;103080.81;10276020;28;20085;-70
2023/05/26 05:02:51;;;;;;;15.70;6.78;;;;;;;9.55;100.00;103088.78;10276759;28;20023;-74
2023/05/26 05:07:51;;;;;;;16.90;6.30;;;;;;;9.67;100.00;103095.81;10293229;28;20089;-74
2023/05/26 05:12:52;;;;;;;17.08;6.30;;;;;;;10.31;100.00;103102.66;10299003;28;20070;-74
2023/05/26 05:17:53;;;;;;;19.60;6.95;;;;;;;11.05;100.00;103106.56;10300854;28;20057;-75
2023/05/26 05:22:54;;;;;;;15.05;4.25;;;;;;;11.57;100.00;103101.50;10300979;28;20119;-73
2023/05/26 05:27:55;;;;;;;15.52;4.30;;;;;;;11.89;100.00;103111.09;10301067;28;20107;-73
2023/05/26 05:32:55;;;;;;;24.42;6.85;;;;;;;12.20;100.00;103111.59;10300817;28;20023;-73
2023/05/26 05:37:57;;;;;;;29.00;7.55;;;;;;;12.39;100.00;103116.03;10300977;28;20347;-73
2023/05/26 05:42:57;;;;;;;17.73;5.40;;;;;;;13.02;100.00;103111.28;10284415;28;20429;-73
2023/05/26 05:47:58;;;;;;;19.00;4.82;;;;;;;13.12;100.00;103111.19;10297120;28;20039;-73
2023/05/26 05:52:58;;;;;;;29.83;6.68;;;;;;;13.41;99.84;103115.47;10296976;28;20023;-73
2023/05/26 05:57:59;;;;;;;14.13;6.57;;;;;;;13.66;90.16;103128.16;10285113;28;20035;-73
2023/05/26 06:02:59;;;;;;;18.13;6.50;;;;;;;13.87;90.95;103115.97;10299321;28;20068;-73
2023/05/26 06:08:00;;;;;;;20.02;6.95;;;;;;;14.10;88.62;103121.66;10299077;28;20030;-73
2023/05/26 06:13:00;;;;;;;12.88;5.40;;;;;;;14.36;81.64;103122.41;10300558;28;20043;-73
2023/05/26 06:18:00;;;;;;;27.20;5.47;;;;;;;14.58;81.01;103129.13;10281339;28;20129;-73
2023/05/26 06:23:01;;;;;;;10.57;5.35;;;;;;;14.79;76.77;103125.00;10281517;28;20074;-73
2023/05/26 06:28:01;;;;;;;16.20;3.88;;;;;;;14.76;74.88;103130.81;10298941;28;20031;-73
2023/05/26 06:33:02;;;;;;;18.58;5.47;;;;;;;14.65;75.88;103126.56;10298459;28;20377;-73
2023/05/26 06:38:02;;;;;;;12.77;4.53;;;;;;;15.07;75.49;103131.81;10298786;28;20125;-73
2023/05/26 06:43:02;;;;;;;20.65;5.30;;;;;;;15.45;70.71;103133.94;10298474;28;20145;-73
2023/05/26 06:48:03;;;;;;;10.40;5.25;;;;;;;16.12;69.58;103136.25;10297957;28;20034;-73
2023/05/26 06:53:03;;;;;;;17.60;5.03;;;;;;;16.61;67.75;103135.91;10296574;28;20097;-73
2023/05/26 06:58:04;;;;;;;21.40;5.10;;;;;;;15.82;64.49;103127.84;10298138;28;20465;-73
2023/05/26 07:03:04;;;;;;;21.55;5.97;;;;;;;15.45;64.64;103137.53;10297085;28;20117;-73
2023/05/26 07:08:04;;;;;;;30.45;5.63;;;;;;;15.59;65.01;103147.69;10296946;28;20073;-73
2023/05/26 07:13:05;;;;;;;15.10;4.60;;;;;;;15.87;61.91;103143.72;10278917;28;20050;-73
2023/05/26 07:18:05;;;;;;;10.90;4.90;;;;;;;15.93;61.22;103140.28;10279082;28;20137;-73
2023/05/26 07:23:06;;;;;;;16.00;4.95;;;;;;;16.02;61.84;103144.66;10296636;28;20462;-73
2023/05/26 07:28:06;;;;;;;9.15;3.90;;;;;;;17.24;58.85;103140.13;10262790;28;20033;-73
2023/05/26 07:33:06;;;;;;;13.38;4.82;;;;;;;17.00;55.89;103146.69;10294782;28;20031;-73
2023/05/26 07:38:07;;;;;;;19.25;6.43;;;;;;;16.84;56.38;103135.91;10294657;28;20385;-73
2023/05/26 07:43:10;;;;;;;15.85;5.32;;;;;;;17.08;56.81;103126.63;10295409;28;20589;-73
2023/05/26 07:48:10;;;;;;;11.07;4.35;;;;;;;17.48;57.08;103129.94;10295122;28;20185;-73
2023/05/26 07:53:11;;;;;;;16.45;6.07;;;;;;;18.52;57.04;103116.88;10261930;28;20458;-73
2023/05/26 07:58:12;;;;;;;11.02;4.63;;;;;;;18.95;51.69;103122.31;10278681;28;20063;-73
2023/05/26 08:03:12;;;;;;;15.05;4.97;;;;;;;19.26;54.29;103124.66;10293962;28;20104;-73
2023/05/26 08:08:12;;;;;;;6.65;3.40;;;;;;;20.08;51.45;103118.34;10296120;28;20053;-74
2023/05/26 08:13:13;;;;;;;5.82;4.13;;;;;;;19.94;50.44;103120.19;10294524;28;20055;-73
2023/05/26 08:18:13;;;;;;;17.08;6.50;;;;;;;20.27;50.06;103124.94;10294803;28;20035;-73
2023/05/26 08:23:13;;;;;;;11.32;5.18;;;;;;;19.93;48.33;103136.88;10294728;28;20462;-73
2023/05/26 08:28:14;;;;;;;8.85;4.35;;;;;;;19.35;48.61;103115.22;10294571;28;20039;-73
2023/05/26 08:33:14;;;;;;;7.97;4.60;;;;;;;20.18;49.00;103113.28;10295257;28;20113;-73
2023/05/26 08:38:15;;;;;;;9.10;4.07;;;;;;;20.02;45.53;103119.16;10293896;28;20041;-73
2023/05/26 08:43:15;;;;;;;10.85;4.38;;;;;;;19.70;48.39;103124.31;10278319;28;20031;-73
2023/05/26 08:48:16;;;;;;;10.10;3.78;;;;;;;19.93;46.74;103120.38;10272026;28;20365;-73
2023/05/26 08:53:16;;;;;;;18.25;5.35;;;;;;;19.99;46.34;103138.81;10289449;28;20035;-73
2023/05/26 08:58:17;;;;;;;11.10;4.93;;;;;;;20.44;45.28;103131.72;10311186;28;20093;-74
2023/05/26 09:03:17;;;;;;;7.63;3.88;;;;;;;20.24;45.69;103125.34;10301961;28;20026;-74
2023/05/26 09:08:18;;;;;;;6.25;4.15;;;;;;;20.37;46.00;103119.03;10278912;28;20042;-73
2023/05/26 09:13:18;;;;;;;7.05;3.83;;;;;;;21.27;44.35;103117.56;10307691;28;20081;-73
2023/05/26 09:18:18;;;;;;;13.02;4.20;;;;;;;21.47;44.71;103127.72;10306641;28;20031;-74
2023/05/26 09:23:21;;;;;;;12.00;4.25;;;;;;;21.86;43.19;103131.38;10273827;28;20478;-73
2023/05/26 09:28:22;;;;;;;9.27;4.88;;;;;;;21.01;43.47;103126.72;10306926;28;20093;-73
2023/05/26 09:33:22;;;;;;;6.78;4.18;;;;;;;21.17;42.98;103133.69;10290003;28;20027;-73
2023/05/26 09:38:23;;;;;;;16.15;6.07;;;;;;;21.64;42.61;103122.59;10289379;28;20058;-73
2023/05/26 09:43:23;;;;;;;11.88;4.00;;;;;;;21.64;41.34;103128.09;10273056;28;20023;-73
2023/05/26 09:48:24;;;;;;;10.60;4.22;;;;;;;21.39;41.03;103120.53;10273328;28;20027;-74
2023/05/26 09:53:24;;;;;;;11.18;5.18;;;;;;;21.26;42.47;103118.63;10306034;28;20058;-73
2023/05/26 09:58:25;;;;;;;15.20;5.22;;;;;;;21.46;41.00;103117.75;10302071;28;20129;-73
2023/05/26 10:03:26;;;;;;;9.90;4.35;;;;;;;21.62;43.90;103108.16;10298527;28;20042;-73
2023/05/26 10:08:30;;;;;;;10.88;3.90;;;;;;;21.95;41.33;103108.00;10265837;28;20114;-74
2023/05/26 10:13:31;;;;;;;11.48;4.15;;;;;;;21.90;41.40;103100.41;10282877;28;20042;-73
2023/05/26 10:18:31;;;;;;;14.68;4.88;;;;;;;21.61;41.87;103101.81;10249829;28;20209;-73
2023/05/26 10:23:36;;;;;;;11.20;4.90;;;;;;;21.87;39.77;103103.59;10281830;28;20030;-73
2023/05/26 10:28:53;;;;;;;9.88;4.68;;;;;;;22.39;39.41;103109.88;10266206;28;20019;-74
2023/05/26 10:33:53;;;;;;;15.55;4.80;;;;;;;22.25;42.49;103100.84;10280627;28;20034;-73
2023/05/26 10:38:54;;;;;;;12.75;5.13;;;;;;;21.58;43.03;103102.25;10298717;28;20105;-73
2023/05/26 10:43:55;;;;;;;3.97;3.60;;;;;;;22.47;39.16;103101.34;10281724;28;20027;-73
2023/05/26 10:48:56;;;;;;;16.23;4.82;;;;;;;22.62;42.54;103101.03;10265274;28;20042;-73
2023/05/26 10:53:57;;;;;;;8.20;4.95;;;;;;;23.07;40.93;103105.50;10280217;28;20093;-74
2023/05/26 10:58:57;;;;;;;11.13;5.50;;;;;;;22.76;40.22;103107.28;10297090;28;20497;-73
2023/05/26 11:04:08;;;;;;;9.20;3.85;;;;;;;23.20;41.46;103091.59;10280224;28;20085;-74
2023/05/26 11:09:09;;;;;;;15.55;4.72;;;;;;;23.66;39.30;103096.56;10278874;28;20033;-74
2023/05/26 11:14:10;;;;;;;10.18;5.72;;;;;;;23.97;40.58;103091.94;10278273;28;20504;-74
2023/05/26 11:19:11;;;;;;;11.63;5.03;;;;;;;23.83;36.46;103096.78;10279209;28;20521;-74
2023/05/26 11:24:11;;;;;;;14.38;4.80;;;;;;;23.43;39.84;103094.50;10296831;28;20035;-74
2023/05/26 11:29:12;;;;;;;5.28;4.00;;;;;;;23.59;36.37;103081.97;10279023;28;20496;-74
2023/05/26 11:34:12;;;;;;;13.50;4.40;;;;;;;23.09;35.49;103075.75;10297243;28;20027;-74
2023/05/26 11:39:13;;;;;;;9.57;4.38;;;;;;;22.83;37.24;103083.19;10279119;28;20031;-74
2023/05/26 11:44:13;;;;;;;5.07;4.30;;;;;;;22.82;38.45;103069.63;10298763;28;20066;-74
2023/05/26 11:49:14;;;;;;;9.68;4.03;;;;;;;23.12;37.90;103080.81;10296116;28;20430;-73
2023/05/26 11:54:15;;;;;;;14.25;4.50;;;;;;;22.83;36.40;103061.09;10277844;28;20377;-73
2023/05/26 11:59:20;;;;;;;4.38;3.65;;;;;;;22.21;37.00;103073.94;10279007;28;20114;-74
2023/05/26 12:04:27;;;;;;;4.55;2.50;;;;;;;22.97;37.48;103061.81;10279115;28;20066;-74
2023/05/26 12:09:28;;;;;;;10.57;3.88;;;;;;;22.94;33.81;103074.22;10294943;28;20059;-74
2023/05/26 12:14:28;;;;;;;9.13;3.58;;;;;;;22.12;36.54;103076.09;10303703;28;20053;-74
2023/05/26 12:19:30;;;;;;;19.58;5.47;;;;;;;22.06;38.99;103075.06;10301122;28;20077;-74
2023/05/26 12:24:36;;;;;;;7.03;4.15;;;;;;;22.66;35.97;103068.28;10282414;28;20056;-74
2023/05/26 12:29:40;;;;;;;7.88;4.38;;;;;;;22.78;35.23;103065.59;10293701;28;20081;-74
2023/05/26 12:34:41;;;;;;;6.70;2.70;;;;;;;22.32;36.56;103064.94;10260439;28;20462;-74
2023/05/26 12:39:42;;;;;;;6.30;3.33;;;;;;;22.49;35.87;103049.53;10260745;28;20038;-74
2023/05/26 12:44:42;;;;;;;6.05;3.25;;;;;;;23.05;36.29;103052.41;10293661;28;20030;-74
2023/05/26 12:49:42;;;;;;;7.95;4.07;;;;;;;23.49;35.42;103042.97;10260837;28;20061;-74
2023/05/26 12:54:43;;;;;;;12.98;3.95;;;;;;;23.01;36.17;103049.25;10260130;28;20425;-74
2023/05/26 12:59:43;;;;;;;11.60;3.55;;;;;;;23.37;37.15;103048.41;10276982;28;20034;-74
2023/05/26 13:04:44;;;;;;;12.15;4.72;;;;;;;23.46;35.81;103042.59;10275195;28;20031;-74
2023/05/26 13:09:46;;;;;;;8.02;3.22;;;;;;;23.65;35.91;103047.00;10292746;28;20047;-75
2023/05/26 13:14:47;;;;;;;7.10;4.03;;;;;;;23.05;36.51;103056.00;10276089;28;20049;-74
2023/05/26 13:19:47;;;;;;;11.63;3.83;;;;;;;23.08;34.36;103055.56;10275301;28;20469;-74
2023/05/26 13:24:47;;;;;;;9.48;5.13;;;;;;;22.29;37.25;103033.09;10275811;28;20114;-74
2023/05/26 13:29:48;;;;;;;9.90;3.38;;;;;;;22.38;36.31;103035.59;10293130;28;20400;-74
2023/05/26 13:34:48;;;;;;;7.68;3.05;;;;;;;22.46;38.20;103038.06;10298060;28;20109;-74
2023/05/26 13:39:49;;;;;;;9.35;3.80;;;;;;;23.11;37.05;103029.38;10284341;28;20462;-74
2023/05/26 13:44:49;;;;;;;13.75;3.33;;;;;;;23.56;37.13;103026.28;10283613;28;20026;-74
2023/05/26 13:49:49;;;;;;;14.13;4.88;;;;;;;23.02;36.89;103016.94;10300659;28;20039;-75
2023/05/26 13:54:50;;;;;;;6.05;3.45;;;;;;;23.43;35.73;103013.47;10281541;28;20039;-74
2023/05/26 13:59:51;;;;;;;8.18;3.95;;;;;;;23.23;35.73;103004.56;10266023;28;20134;-75
2023/05/26 14:04:52;;;;;;;6.63;3.38;;;;;;;22.73;34.99;103016.56;10282290;28;20382;-75
2023/05/26 14:09:52;;;;;;;6.72;3.65;;;;;;;22.68;35.95;103010.88;10300448;28;20034;-74
2023/05/26 14:14:52;;;;;;;5.03;2.80;;;;;;;22.08;35.68;103005.00;10300701;28;20050;-74
2023/05/26 14:19:54;;;;;;;7.38;4.03;;;;;;;21.94;36.68;102999.56;10300384;28;20043;-74
2023/05/26 14:24:54;;;;;;;6.00;3.08;;;;;;;22.22;37.11;103010.22;10297979;28;20397;-75
2023/05/26 14:29:57;;;;;;;8.70;3.63;;;;;;;22.13;38.19;103007.94;10282723;28;20043;-74
2023/05/26 14:34:58;;;;;;;8.18;4.82;;;;;;;22.12;39.16;103006.25;10298403;28;20031;-75
2023/05/26 14:39:58;;;;;;;13.35;4.88;;;;;;;22.11;37.14;103010.91;10296685;28;20066;-74
2023/05/26 14:44:59;;;;;;;7.63;3.65;;;;;;;21.45;40.26;102992.88;10280135;28;20081;-74
2023/05/26 14:49:59;;;;;;;13.38;5.55;;;;;;;21.42;39.72;102986.94;10264433;28;20026;-74
2023/05/26 14:55:00;;;;;;;12.13;3.60;;;;;;;21.40;38.88;102994.59;10281236;28;20057;-75
2023/05/26 15:00:00;;;;;;;4.53;3.15;;;;;;;21.20;40.03;102992.72;10297609;28;20069;-74
2023/05/26 15:05:01;;;;;;;10.80;3.35;;;;;;;21.03;39.68;102992.38;10280038;28;20030;-74
2023/05/26 15:10:02;;;;;;;8.80;3.67;;;;;;;21.13;39.52;102990.00;10279947;28;20038;-74
2023/05/26 15:15:03;;;;;;;5.30;3.00;;;;;;;21.13;39.98;102986.41;10298493;28;20098;-74
2023/05/26 15:20:04;;;;;;;6.88;4.47;;;;;;;20.99;38.19;103002.13;10280517;28;20039;-74
2023/05/26 15:25:04;;;;;;;6.13;3.33;;;;;;;20.63;40.57;102986.09;10281018;28;20074;-75
2023/05/26 15:30:06;;;;;;;6.65;3.50;;;;;;;20.61;39.39;102979.94;10279736;28;20054;-75
2023/05/26 15:35:06;;;;;;;6.72;3.53;;;;;;;20.49;41.32;102977.00;10300603;28;20097;-74
2023/05/26 15:40:07;;;;;;;6.68;4.50;;;;;;;20.26;40.88;102971.06;10289592;28;20164;-74
2023/05/26 15:45:08;;;;;;;8.90;4.18;;;;;;;20.23;41.82;102979.72;10294972;28;20030;-75
2023/05/26 15:50:09;;;;;;;11.65;4.00;;;;;;;20.02;41.76;102969.81;10310087;28;20450;-75
2023/05/26 15:55:09;;;;;;;10.75;3.70;;;;;;;19.57;42.19;102981.31;10294001;28;20088;-74
2023/05/26 16:00:11;;;;;;;12.18;3.60;;;;;;;19.79;42.71;102975.69;10278609;28;20035;-74
2023/05/26 16:05:11;;;;;;;16.17;3.28;;;;;;;19.52;42.43;102992.06;10295168;28;20021;-74
2023/05/26 16:10:11;;;;;;;16.08;4.45;;;;;;;19.19;43.52;102976.31;10277033;28;20070;-74
2023/05/26 16:15:12;;;;;;;4.53;2.95;;;;;;;18.91;44.20;102972.78;10294530;28;20362;-74
2023/05/26 16:20:12;;;;;;;12.55;3.65;;;;;;;18.57;44.53;102964.31;10294071;28;20070;-74
2023/05/26 16:25:13;;;;;;;13.05;5.32;;;;;;;17.82;45.80;102974.00;10309151;28;20461;-74
2023/05/26 16:30:13;;;;;;;8.23;4.05;;;;;;;17.56;46.18;102965.47;10260852;28;20054;-74
2023/05/26 16:35:14;;;;;;;10.15;4.35;;;;;;;17.41;46.60;102968.25;10294211;28;20027;-74
2023/05/26 16:40:14;;;;;;;15.70;5.93;;;;;;;17.18;47.60;102971.13;10277688;28;20204;-74
2023/05/26 16:45:15;;;;;;;12.48;5.25;;;;;;;17.04;48.52;102974.72;10296838;28;20030;-74
2023/05/26 16:50:15;;;;;;;10.60;4.63;;;;;;;16.76;49.22;102980.03;10278363;28;20546;-74
2023/05/26 16:55:15;;;;;;;10.65;5.07;;;;;;;16.78;49.38;102972.47;10293983;28;20026;-74
2023/05/26 17:00:16;;;;;;;11.15;4.40;;;;;;;16.78;49.92;102973.31;10259976;28;20121;-74
2023/05/26 17:05:17;;;;;;;12.45;4.75;;;;;;;16.65;52.73;102976.66;10276188;28;20038;-74
2023/05/26 17:10:18;;;;;;;16.42;4.47;;;;;;;16.59;55.37;102971.09;10301473;28;20085;-74
2023/05/26 17:15:19;;;;;;;14.82;5.25;;;;;;;16.44;55.30;102969.22;10299887;28;20118;-74
2023/05/26 17:20:19;;;;;;;14.20;5.68;;;;;;;16.24;56.43;102985.28;10300686;28;20031;-74
2023/05/26 17:25:20;;;;;;;14.98;4.97;;;;;;;16.11;55.83;102987.78;10301357;28;20101;-74
2023/05/26 17:30:21;;;;;;;10.48;5.30;;;;;;;16.06;57.07;102989.38;10300152;28;20113;-74
2023/05/26 17:35:21;;;;;;;22.00;6.45;;;;;;;15.83;57.34;102992.13;10298873;28;20472;-74
2023/05/26 17:40:22;;;;;;;19.48;5.55;;;;;;;15.70;57.97;102996.28;10299730;28;20035;-73
2023/05/26 17:45:22;;;;;;;10.13;4.32;;;;;;;15.47;60.50;102988.00;10283522;28;20042;-74
2023/05/26 17:50:23;;;;;;;19.80;6.03;;;;;;;15.39;61.43;103012.63;10299081;28;20415;-74
2023/05/26 17:55:23;;;;;;;9.63;5.80;;;;;;;15.23;60.81;102996.34;10283475;28;20038;-74
2023/05/26 18:00:23;;;;;;;11.73;3.92;;;;;;;15.14;59.79;102998.25;10299319;28;20039;-74
2023/05/26 18:05:24;;;;;;;12.25;5.30;;;;;;;15.06;61.19;103000.97;10279268;28;20093;-74
2023/05/26 18:10:24;;;;;;;13.32;7.20;;;;;;;14.83;65.96;103009.06;10281144;28;20031;-74
2023/05/26 18:15:25;;;;;;;18.08;4.85;;;;;;;14.79;65.44;103014.03;10282830;28;20034;-74
2023/05/26 18:20:27;;;;;;;21.58;6.35;;;;;;;14.61;69.81;103019.72;10281200;28;20423;-74
2023/05/26 18:25:27;;;;;;;19.75;5.90;;;;;;;14.46;72.52;103018.66;10264729;28;20023;-74
2023/05/26 18:30:28;;;;;;;14.80;4.57;;;;;;;14.25;75.53;103021.88;10281003;28;20138;-73
2023/05/26 18:35:28;;;;;;;10.18;4.97;;;;;;;14.14;76.09;103031.25;10299490;28;20117;-74
2023/05/26 18:40:29;;;;;;;9.93;4.70;;;;;;;14.03;77.50;103023.41;10299396;28;20038;-74
2023/05/26 18:45:29;;;;;;;24.10;5.85;;;;;;;13.93;77.87;103026.28;10298161;28;20023;-74
2023/05/26 18:50:31;;;;;;;17.25;4.57;;;;;;;13.77;80.32;103030.84;10332191;28;20053;-75
2023/05/26 18:55:32;;;;;;;16.95;5.78;;;;;;;13.76;77.22;103026.44;10329900;28;20038;-76
2023/05/26 19:00:32;;;;;;;18.60;5.85;;;;;;;13.64;77.82;103026.72;10292823;28;20034;-74
2023/05/26 19:05:33;;;;;;;6.43;4.07;;;;;;;13.51;79.71;103015.47;10284310;28;20082;-74
2023/05/26 19:10:33;;;;;;;10.05;5.22;;;;;;;13.44;77.34;103023.44;10296736;28;20102;-75
2023/05/26 19:15:34;;;;;;;14.02;6.22;;;;;;;13.26;79.66;103023.53;10298241;28;20094;-74
2023/05/26 19:20:34;;;;;;;23.40;5.38;;;;;;;13.18;77.76;103020.75;10299249;28;20478;-76
2023/05/26 19:25:37;;;;;;;21.35;4.50;;;;;;;13.07;78.64;103026.47;10262604;28;20019;-74
2023/05/26 19:30:39;;;;;;;7.78;4.05;;;;;;;12.94;80.65;103020.63;10296318;28;20122;-75
2023/05/26 19:35:40;;;;;;;12.02;4.18;;;;;;;12.78;82.94;103022.22;10295891;28;20081;-74
2023/05/26 19:40:41;;;;;;;7.80;4.93;;;;;;;12.70;80.27;103021.31;10277875;28;20031;-75
2023/05/26 19:45:41;;;;;;;15.13;4.40;;;;;;;12.59;78.19;103027.03;10277945;28;20034;-74
2023/05/26 19:50:42;;;;;;;14.65;6.15;;;;;;;12.45;79.15;103031.19;10278127;28;20027;-74
2023/05/26 19:55:42;;;;;;;20.35;6.03;;;;;;;12.32;82.99;103034.31;10294738;28;20077;-74
2023/05/26 20:00:43;;;;;;;9.88;6.22;;;;;;;12.24;81.83;103023.34;10294388;28;20439;-74
2023/05/26 20:05:44;;;;;;;15.05;5.53;;;;;;;12.07;80.98;103020.50;10295588;28;20050;-74
2023/05/26 20:10:44;;;;;;;27.38;6.45;;;;;;;12.03;83.94;103031.84;10293540;28;20450;-75
2023/05/26 20:15:44;;;;;;;26.40;6.68;;;;;;;11.93;80.72;103031.88;10278265;28;20054;-74
2023/05/26 20:20:46;;;;;;;17.67;5.28;;;;;;;11.79;80.25;103041.38;10277051;28;20034;-74
2023/05/26 20:25:47;;;;;;;11.15;4.63;;;;;;;11.71;84.53;103035.88;10294090;28;20417;-74
2023/05/26 20:30:48;;;;;;;12.02;4.63;;;;;;;11.67;81.29;103034.47;10276755;28;20034;-75
2023/05/26 20:35:48;;;;;;;16.05;5.25;;;;;;;11.55;83.37;103028.41;10293381;28;20512;-74
2023/05/26 20:40:48;;;;;;;16.15;5.75;;;;;;;11.52;82.88;103035.97;10292801;28;20093;-74
2023/05/26 20:45:50;;;;;;;13.05;5.85;;;;;;;11.42;82.72;103025.16;10294985;28;20054;-74
2023/05/26 20:50:51;;;;;;;12.25;6.32;;;;;;;11.37;81.07;103036.50;10294881;28;20358;-75
2023/05/26 20:55:51;;;;;;;8.32;4.57;;;;;;;11.30;83.50;103035.38;10276900;28;20035;-74
2023/05/26 21:00:51;;;;;;;26.95;6.65;;;;;;;11.28;85.40;103042.81;10294000;28;20047;-74
2023/05/26 21:05:52;;;;;;;14.75;5.50;;;;;;;11.27;89.23;103034.84;10294040;28;20054;-76
2023/05/26 21:10:52;;;;;;;20.20;6.28;;;;;;;11.14;90.37;103037.88;10295270;28;20050;-75
2023/05/26 21:15:53;;;;;;;16.40;6.00;;;;;;;11.09;91.09;103021.19;10294641;28;20066;-74
2023/05/26 21:20:53;;;;;;;21.45;4.85;;;;;;;11.01;90.86;103021.97;10293687;28;20038;-75
2023/05/26 21:25:53;;;;;;;13.77;4.68;;;;;;;11.00;88.04;103014.81;10275802;28;20027;-74
2023/05/26 21:30:54;;;;;;;19.65;4.85;;;;;;;10.90;90.49;103020.25;10277144;28;20380;-75
2023/05/26 21:35:54;;;;;;;10.52;5.68;;;;;;;10.87;91.62;103017.84;10276506;28;20035;-74
2023/05/26 21:40:55;;;;;;;14.57;5.13;;;;;;;10.80;90.87;103021.31;10276427;28;20490;-74
2023/05/26 21:45:55;;;;;;;19.20;5.63;;;;;;;10.76;89.99;103017.19;10294429;28;20030;-74
2023/05/26 21:50:56;;;;;;;21.35;5.78;;;;;;;10.64;92.20;103013.78;10295582;28;20118;-75
2023/05/26 21:55:56;;;;;;;14.30;5.40;;;;;;;10.64;93.33;103019.22;10284934;28;20077;-74
2023/05/26 22:00:57;;;;;;;15.75;4.82;;;;;;;10.64;95.76;103013.78;10311550;28;20047;-75
2023/05/26 22:05:57;;;;;;;18.35;5.43;;;;;;;10.61;92.14;103023.06;10316286;28;20050;-75
2023/05/26 22:10:57;;;;;;;28.27;5.68;;;;;;;10.52;90.06;103021.22;10298084;28;20047;-76
2023/05/26 22:15:58;;;;;;;17.92;6.82;;;;;;;10.46;91.06;103019.97;10299208;28;20038;-75
2023/05/26 22:20:59;;;;;;;21.92;7.00;;;;;;;10.41;91.80;103006.00;10298598;28;20037;-75
2023/05/26 22:25:59;;;;;;;22.35;6.13;;;;;;;10.38;90.38;103006.28;10281195;28;20530;-75
2023/05/26 22:31:00;;;;;;;10.02;6.07;;;;;;;10.33;90.29;103010.41;10298780;28;20043;-75
2023/05/26 22:36:00;;;;;;;18.38;4.85;;;;;;;10.26;91.88;103004.72;10280169;28;20025;-73
2023/05/26 22:41:01;;;;;;;30.17;6.60;;;;;;;10.23;95.63;103010.38;10280923;28;20042;-74
2023/05/26 22:46:01;;;;;;;20.20;6.82;;;;;;;10.24;100.00;103010.25;10280717;28;20026;-74
2023/05/26 22:51:02;;;;;;;15.75;6.82;;;;;;;10.24;97.19;103003.97;10297350;28;20327;-74